Time;durP1;ratioP1;P1;durP2;ratioP2;P2;SDS_P1;SDS_P2;PMS_P1;PMS_P2;Temp;Humidity;BMP_temperature;BMP_pressure;BME280_temperature;BME280_humidity;BME280_pressure;Samples;Min_cycle;Max_cycle;Signal;HPM_P1;HPM_P2
2023/07/17 00:00:12;;;;;;;5.78;3.50;;;19.30;99.90;;;;;;5033869;28;20026;-55
2023/07/17 00:02:42;;;;;;;8.52;4.22;;;19.30;99.90;;;;;;5033761;28;20080;-53
2023/07/17 00:05:09;;;;;;;5.32;3.80;;;19.20;99.90;;;;;;5033555;28;20021;-53
2023/07/17 00:07:35;;;;;;;5.65;3.88;;;19.10;99.90;;;;;;5033424;28;20100;-55
2023/07/17 00:10:03;;;;;;;8.50;4.07;;;19.10;99.90;;;;;;5033618;28;20471;-54
2023/07/17 00:12:30;;;;;;;8.73;4.13;;;19.10;99.90;;;;;;5033669;28;20033;-56
2023/07/17 00:14:55;;;;;;;9.77;5.20;;;19.10;99.90;;;;;;5033517;28;20030;-55
2023/07/17 00:17:21;;;;;;;9.20;5.03;;;19.00;99.90;;;;;;5033085;28;20076;-52
2023/07/17 00:19:55;;;;;;;10.82;4.30;;;19.00;99.90;;;;;;5032079;28;20030;-52
2023/07/17 00:22:21;;;;;;;9.05;4.20;;;19.10;99.90;;;;;;5033553;28;20448;-53
2023/07/17 00:24:46;;;;;;;11.30;4.10;;;19.10;99.90;;;;;;5033486;28;20104;-53
2023/07/17 00:27:12;;;;;;;6.38;3.55;;;19.00;99.90;;;;;;5033300;28;20239;-54
2023/07/17 00:29:40;;;;;;;8.73;4.07;;;19.00;99.90;;;;;;5033283;28;20030;-56
2023/07/17 00:32:06;;;;;;;12.00;4.80;;;19.00;99.90;;;;;;5034843;28;20082;-54
2023/07/17 00:34:32;;;;;;;8.63;3.90;;;19.00;99.90;;;;;;5033277;28;20112;-55
2023/07/17 00:36:58;;;;;;;12.23;4.28;;;19.00;99.90;;;;;;5032918;28;20029;-50
2023/07/17 00:39:24;;;;;;;7.38;3.63;;;19.00;99.90;;;;;;5033247;28;20032;-52
2023/07/17 00:41:50;;;;;;;12.07;4.68;;;18.90;99.90;;;;;;5033168;28;20017;-52
2023/07/17 00:44:17;;;;;;;7.22;3.42;;;18.80;99.90;;;;;;5033231;28;20301;-50
2023/07/17 00:46:43;;;;;;;10.55;4.78;;;18.80;99.90;;;;;;5032791;28;20076;-51
2023/07/17 00:49:10;;;;;;;6.13;4.03;;;18.80;99.90;;;;;;5033349;28;20029;-54
2023/07/17 00:51:39;;;;;;;7.88;4.55;;;18.70;99.90;;;;;;5032990;28;20029;-50
2023/07/17 00:54:05;;;;;;;5.57;4.78;;;18.70;99.90;;;;;;5032684;28;20108;-51
2023/07/17 00:56:31;;;;;;;9.63;4.30;;;18.70;99.90;;;;;;5032672;28;20456;-52
2023/07/17 00:58:57;;;;;;;8.95;3.78;;;18.70;99.90;;;;;;5032849;28;20045;-54
2023/07/17 01:01:23;;;;;;;8.20;3.63;;;18.70;99.90;;;;;;5032794;28;20098;-53
2023/07/17 01:03:53;;;;;;;15.38;5.80;;;18.60;99.90;;;;;;5032675;28;20049;-52
2023/07/17 01:06:19;;;;;;;6.30;4.88;;;18.60;99.90;;;;;;5032330;28;20025;-52
2023/07/17 01:08:45;;;;;;;7.45;4.55;;;18.50;99.90;;;;;;5032511;28;20021;-53
2023/07/17 01:11:10;;;;;;;7.90;3.90;;;18.50;99.90;;;;;;5032784;28;20435;-55
2023/07/17 01:13:46;;;;;;;11.65;4.45;;;18.50;99.90;;;;;;5031049;28;20025;-52
2023/07/17 01:16:13;;;;;;;5.55;4.40;;;18.40;99.90;;;;;;5031459;28;20079;-52
2023/07/17 01:18:39;;;;;;;10.30;4.57;;;18.30;99.90;;;;;;5031955;28;20030;-54
2023/07/17 01:21:08;;;;;;;6.20;4.03;;;18.20;99.90;;;;;;5032584;28;20021;-51
2023/07/17 01:23:34;;;;;;;6.50;3.88;;;18.20;99.90;;;;;;5030956;28;20030;-52
2023/07/17 01:26:00;;;;;;;12.05;5.05;;;18.20;99.90;;;;;;5032022;28;20175;-53
2023/07/17 01:28:25;;;;;;;10.75;4.18;;;18.10;99.90;;;;;;5032179;28;20021;-51
2023/07/17 01:30:51;;;;;;;12.55;4.35;;;18.10;99.90;;;;;;5032232;28;20075;-55
2023/07/17 01:33:17;;;;;;;10.80;4.30;;;18.20;99.90;;;;;;5032089;28;20027;-51
2023/07/17 01:35:43;;;;;;;6.55;4.18;;;18.20;99.90;;;;;;5031896;28;20021;-51
2023/07/17 01:38:08;;;;;;;6.95;5.00;;;18.20;99.90;;;;;;5031783;28;20101;-52
2023/07/17 01:40:34;;;;;;;10.38;4.88;;;18.30;99.90;;;;;;5032108;28;20104;-56
2023/07/17 01:42:59;;;;;;;10.65;4.05;;;18.30;99.90;;;;;;5031978;28;20029;-54
2023/07/17 01:45:25;;;;;;;9.82;4.97;;;18.30;99.90;;;;;;5032005;28;20108;-50
2023/07/17 01:47:50;;;;;;;8.63;4.05;;;18.40;99.90;;;;;;5031446;28;20025;-54
2023/07/17 01:50:16;;;;;;;8.95;4.63;;;18.30;99.90;;;;;;5031878;28;20516;-53
2023/07/17 01:52:41;;;;;;;9.10;4.70;;;18.30;99.90;;;;;;5031816;28;20112;-50
2023/07/17 01:55:07;;;;;;;12.68;4.72;;;18.40;99.90;;;;;;5031660;28;20389;-51
2023/07/17 01:57:33;;;;;;;10.25;4.22;;;18.40;99.90;;;;;;5031223;28;20223;-50
2023/07/17 01:59:58;;;;;;;9.68;4.68;;;18.40;99.90;;;;;;5031544;28;20025;-52
2023/07/17 02:02:25;;;;;;;6.88;4.07;;;18.40;99.90;;;;;;5031593;28;20169;-49
2023/07/17 02:04:51;;;;;;;7.00;3.83;;;18.40;99.90;;;;;;5031592;28;20052;-52
2023/07/17 02:07:16;;;;;;;11.30;3.78;;;18.40;99.90;;;;;;5031360;28;20057;-55
2023/07/17 02:09:42;;;;;;;7.65;4.13;;;18.40;99.90;;;;;;5031772;28;20068;-52
2023/07/17 02:12:08;;;;;;;9.15;4.82;;;18.40;99.90;;;;;;5031604;28;20083;-52
2023/07/17 02:14:34;;;;;;;8.35;4.72;;;18.40;99.90;;;;;;5031619;28;20060;-49
2023/07/17 02:17:00;;;;;;;7.82;4.47;;;18.40;99.90;;;;;;5030892;28;20057;-54
2023/07/17 02:19:25;;;;;;;8.30;4.85;;;18.40;99.90;;;;;;5031592;28;20037;-54
2023/07/17 02:21:51;;;;;;;7.45;4.57;;;18.30;99.90;;;;;;5031768;28;20021;-52
2023/07/17 02:24:16;;;;;;;11.18;4.72;;;18.30;99.90;;;;;;5031598;28;20046;-53
2023/07/17 02:26:42;;;;;;;11.50;5.38;;;18.20;99.90;;;;;;5031143;28;20025;-52
2023/07/17 02:29:08;;;;;;;8.20;4.40;;;18.10;99.90;;;;;;5035590;28;20029;-54
2023/07/17 02:31:33;;;;;;;9.35;4.78;;;18.00;99.90;;;;;;5035696;28;20099;-53
2023/07/17 02:33:59;;;;;;;8.25;4.70;;;17.80;99.90;;;;;;5035780;28;20021;-52
2023/07/17 02:36:24;;;;;;;15.70;4.97;;;17.70;99.90;;;;;;5035310;28;20492;-53
2023/07/17 02:38:50;;;;;;;10.52;5.40;;;17.70;99.90;;;;;;5035588;28;20108;-51
2023/07/17 02:41:15;;;;;;;12.55;5.00;;;17.60;99.90;;;;;;5035419;28;20021;-51
2023/07/17 02:43:40;;;;;;;9.85;5.00;;;17.60;99.90;;;;;;5035219;28;20044;-55
2023/07/17 02:46:06;;;;;;;9.05;4.78;;;17.60;99.90;;;;;;5035079;28;20037;-50
2023/07/17 02:48:31;;;;;;;7.38;4.35;;;17.60;99.90;;;;;;5035284;28;20021;-50
2023/07/17 02:50:57;;;;;;;13.90;5.00;;;17.50;99.90;;;;;;5035204;28;20025;-50
2023/07/17 02:53:22;;;;;;;6.35;4.60;;;17.50;99.90;;;;;;5035185;28;20034;-52
2023/07/17 02:55:48;;;;;;;8.73;4.75;;;17.40;99.90;;;;;;5034796;28;20109;-55
2023/07/17 02:58:17;;;;;;;12.93;5.70;;;17.30;99.90;;;;;;5034886;28;20488;-52
2023/07/17 03:00:43;;;;;;;8.05;4.53;;;17.30;99.90;;;;;;5035425;28;20141;-53
2023/07/17 03:03:09;;;;;;;9.25;4.78;;;17.30;99.90;;;;;;5035152;28;20025;-53
2023/07/17 03:05:35;;;;;;;8.88;4.13;;;17.40;99.90;;;;;;5034892;28;20033;-53
2023/07/17 03:08:00;;;;;;;13.20;4.65;;;17.30;99.90;;;;;;5034629;28;20401;-51
2023/07/17 03:10:27;;;;;;;6.28;4.50;;;17.30;99.90;;;;;;5034864;28;20056;-52
2023/07/17 03:12:52;;;;;;;8.38;4.53;;;17.40;99.90;;;;;;5034746;28;20488;-55
2023/07/17 03:15:18;;;;;;;7.18;4.32;;;17.30;99.90;;;;;;5034726;28;20022;-54
2023/07/17 03:17:44;;;;;;;15.07;5.70;;;17.30;99.90;;;;;;5034095;28;20100;-54
2023/07/17 03:20:10;;;;;;;7.15;4.95;;;17.30;99.90;;;;;;5034565;28;20126;-54
2023/07/17 03:22:36;;;;;;;12.60;5.25;;;17.30;99.90;;;;;;5034552;28;20025;-54
2023/07/17 03:25:04;;;;;;;9.90;4.95;;;17.60;99.90;;;;;;5034452;28;20065;-53
2023/07/17 03:27:30;;;;;;;5.90;4.50;;;17.20;99.90;;;;;;5034175;28;20025;-54
2023/07/17 03:29:56;;;;;;;9.20;4.68;;;17.10;99.90;;;;;;5034315;28;20399;-53
2023/07/17 03:32:21;;;;;;;8.00;4.93;;;17.00;99.90;;;;;;5034516;28;20528;-51
2023/07/17 03:34:47;;;;;;;8.27;5.30;;;16.90;99.90;;;;;;5034286;28;20030;-50
2023/07/17 03:37:13;;;;;;;6.85;4.55;;;16.80;99.90;;;;;;5033973;28;20025;-56
2023/07/17 03:39:38;;;;;;;8.45;4.75;;;16.80;99.90;;;;;;5033565;28;20026;-55
2023/07/17 03:42:10;;;;;;;9.43;4.78;;;16.70;99.90;;;;;;5034285;28;20026;-51
2023/07/17 03:44:38;;;;;;;7.68;4.78;;;16.80;99.90;;;;;;5034174;28;20033;-53
2023/07/17 03:47:07;;;;;;;7.88;4.32;;;16.80;99.90;;;;;;5033815;28;20041;-55
2023/07/17 03:49:33;;;;;;;7.40;5.20;;;16.80;99.90;;;;;;5034083;28;20033;-53
2023/07/17 03:51:59;;;;;;;11.55;4.78;;;16.80;99.90;;;;;;5034021;28;20028;-50
2023/07/17 03:54:25;;;;;;;9.38;5.45;;;16.80;99.90;;;;;;5034138;28;20359;-53
2023/07/17 03:56:50;;;;;;;13.40;5.95;;;16.90;99.90;;;;;;5033639;28;20096;-54
2023/07/17 03:59:15;;;;;;;9.02;4.72;;;16.90;99.90;;;;;;5032606;28;20511;-55
2023/07/17 04:01:41;;;;;;;8.57;4.88;;;17.00;99.90;;;;;;5033929;28;20041;-56
2023/07/17 04:04:06;;;;;;;6.15;5.03;;;16.90;99.90;;;;;;5033804;28;20450;-50
2023/07/17 04:06:32;;;;;;;7.32;5.00;;;17.00;99.90;;;;;;5033305;28;20112;-53
2023/07/17 04:08:58;;;;;;;10.60;5.13;;;16.90;99.90;;;;;;5033719;28;20025;-55
2023/07/17 04:11:24;;;;;;;10.88;5.05;;;16.90;99.90;;;;;;5033690;28;20047;-54
2023/07/17 04:13:50;;;;;;;11.30;5.90;;;17.00;99.90;;;;;;5032361;28;20488;-52
2023/07/17 04:16:19;;;;;;;7.80;4.97;;;17.00;99.90;;;;;;5032057;28;20056;-54
2023/07/17 04:18:44;;;;;;;12.32;5.57;;;17.10;99.90;;;;;;5033116;28;20097;-51
2023/07/17 04:21:10;;;;;;;7.03;4.75;;;17.10;99.90;;;;;;5033648;28;20093;-54
2023/07/17 04:23:35;;;;;;;12.88;5.40;;;17.20;99.90;;;;;;5033748;28;20480;-52
2023/07/17 04:26:01;;;;;;;8.75;5.07;;;17.20;99.90;;;;;;5033539;28;20026;-49
2023/07/17 04:28:26;;;;;;;11.50;5.00;;;17.30;99.90;;;;;;5033233;28;20116;-54
2023/07/17 04:30:52;;;;;;;8.95;5.30;;;17.40;99.90;;;;;;5033270;28;20034;-52
2023/07/17 04:33:17;;;;;;;9.27;4.75;;;17.40;99.90;;;;;;5033784;28;20392;-54
2023/07/17 04:35:43;;;;;;;13.07;5.35;;;17.50;99.90;;;;;;5033413;28;20033;-51
2023/07/17 04:38:09;;;;;;;7.78;5.07;;;17.50;99.90;;;;;;5033041;28;20075;-53
2023/07/17 04:40:34;;;;;;;8.57;5.18;;;17.60;99.90;;;;;;5033865;28;20083;-49
2023/07/17 04:43:01;;;;;;;8.90;5.43;;;17.60;99.90;;;;;;5033335;28;20029;-53
2023/07/17 04:45:26;;;;;;;6.40;4.90;;;17.60;99.90;;;;;;5033094;28;20063;-56
2023/07/17 04:47:52;;;;;;;11.77;5.88;;;17.70;99.90;;;;;;5032503;28;20441;-55
2023/07/17 04:50:18;;;;;;;8.55;5.00;;;17.80;99.90;;;;;;5032251;28;20033;-51
2023/07/17 04:52:44;;;;;;;11.00;4.70;;;17.90;99.90;;;;;;5033216;28;20447;-50
2023/07/17 04:55:09;;;;;;;12.60;4.90;;;18.10;99.90;;;;;;5032924;28;20030;-52
2023/07/17 04:57:35;;;;;;;7.47;4.63;;;18.20;99.90;;;;;;5032590;28;20022;-51
2023/07/17 05:00:00;;;;;;;8.95;4.88;;;18.50;99.90;;;;;;5032761;28;20068;-52
2023/07/17 05:02:26;;;;;;;8.98;5.32;;;18.80;99.90;;;;;;5032500;28;20029;-51
2023/07/17 05:04:51;;;;;;;6.20;3.95;;;19.30;99.90;;;;;;5032744;28;20029;-55
2023/07/17 05:07:17;;;;;;;6.53;4.20;;;19.70;99.90;;;;;;5032294;28;20099;-54
2023/07/17 05:09:43;;;;;;;7.10;4.95;;;20.50;99.90;;;;;;5032682;28;20044;-55
2023/07/17 05:12:08;;;;;;;6.13;4.80;;;21.20;99.90;;;;;;5032642;28;20499;-51
2023/07/17 05:14:34;;;;;;;7.97;4.22;;;21.80;99.90;;;;;;5032393;28;20488;-56
2023/07/17 05:16:59;;;;;;;7.43;4.00;;;22.50;99.90;;;;;;5031782;28;20021;-55
2023/07/17 05:19:25;;;;;;;10.00;3.83;;;22.90;99.90;;;;;;5032426;28;20504;-53
2023/07/17 05:21:50;;;;;;;7.10;4.15;;;23.70;99.90;;;;;;5032348;28;20108;-54
2023/07/17 05:24:16;;;;;;;10.50;4.63;;;24.30;99.90;;;;;;5032311;28;20038;-51
2023/07/17 05:26:41;;;;;;;10.48;5.15;;;24.80;99.80;;;;;;5031841;28;20037;-51
2023/07/17 05:29:07;;;;;;;11.70;4.10;;;25.00;99.10;;;;;;5032099;28;20025;-53
2023/07/17 05:31:32;;;;;;;7.22;3.90;;;25.20;98.50;;;;;;5032094;28;20040;-56
2023/07/17 05:33:58;;;;;;;7.47;4.13;;;25.30;98.40;;;;;;5031985;28;20029;-52
2023/07/17 05:36:23;;;;;;;7.82;4.18;;;25.40;97.80;;;;;;5031637;28;20481;-53
2023/07/17 05:38:49;;;;;;;7.93;4.10;;;25.60;97.50;;;;;;5032008;28;20026;-53
2023/07/17 05:41:14;;;;;;;6.45;3.42;;;25.50;97.40;;;;;;5032047;28;20075;-52
2023/07/17 05:43:40;;;;;;;7.93;3.97;;;25.80;97.40;;;;;;5031764;28;20108;-54
2023/07/17 05:46:05;;;;;;;6.40;3.97;;;26.10;96.80;;;;;;5031611;28;20024;-56
2023/07/17 05:48:31;;;;;;;7.63;4.20;;;26.30;95.90;;;;;;5031771;28;20037;-54
2023/07/17 05:50:56;;;;;;;6.20;3.70;;;26.60;95.70;;;;;;5031636;28;20021;-55
2023/07/17 05:53:22;;;;;;;6.88;3.95;;;26.70;95.60;;;;;;5031745;28;20366;-54
2023/07/17 05:55:47;;;;;;;8.43;3.17;;;27.40;94.50;;;;;;5031346;28;20121;-54
2023/07/17 05:58:13;;;;;;;7.13;3.80;;;27.70;94.00;;;;;;5031347;28;20056;-52
2023/07/17 06:00:39;;;;;;;9.38;4.07;;;27.60;93.20;;;;;;5031558;28;20052;-50
2023/07/17 06:03:05;;;;;;;7.00;3.67;;;27.10;93.80;;;;;;5031277;28;20026;-54
2023/07/17 06:05:35;;;;;;;7.05;3.83;;;26.60;94.60;;;;;;5030140;28;20068;-53
2023/07/17 06:08:00;;;;;;;6.95;3.95;;;25.80;95.60;;;;;;5031271;28;20061;-53
2023/07/17 06:10:26;;;;;;;7.43;3.83;;;24.90;97.30;;;;;;5031902;28;20064;-55
2023/07/17 06:12:52;;;;;;;7.97;3.45;;;24.20;98.60;;;;;;5031508;28;20033;-54
2023/07/17 06:15:17;;;;;;;8.95;4.18;;;23.40;99.90;;;;;;5031439;28;20029;-52
2023/07/17 06:17:43;;;;;;;13.32;4.57;;;23.20;99.90;;;;;;5030988;28;20022;-54
2023/07/17 06:20:09;;;;;;;8.30;4.20;;;23.30;99.90;;;;;;5031256;28;20025;-55
2023/07/17 06:22:35;;;;;;;5.50;4.47;;;23.40;99.90;;;;;;5031493;28;20017;-51
2023/07/17 06:25:00;;;;;;;6.75;3.50;;;24.10;99.90;;;;;;5031206;28;20029;-55
2023/07/17 06:27:26;;;;;;;10.25;3.78;;;25.20;98.20;;;;;;5031001;28;20508;-53
2023/07/17 06:29:51;;;;;;;10.18;3.63;;;26.50;96.00;;;;;;5031561;28;20113;-54
2023/07/17 06:32:17;;;;;;;7.75;3.35;;;27.40;94.70;;;;;;5031957;28;20025;-52
2023/07/17 06:34:42;;;;;;;4.78;3.30;;;28.50;93.80;;;;;;5031010;28;20568;-53
2023/07/17 06:37:08;;;;;;;5.07;2.80;;;29.70;91.50;;;;;;5030986;28;20032;-51
2023/07/17 06:39:33;;;;;;;9.48;3.80;;;30.30;90.20;;;;;;5031592;28;20040;-52
2023/07/17 06:41:59;;;;;;;6.07;3.38;;;30.40;87.90;;;;;;5031557;28;20036;-53
2023/07/17 06:44:24;;;;;;;5.72;3.20;;;30.40;86.60;;;;;;5031676;28;20021;-53
2023/07/17 06:46:50;;;;;;;6.72;3.20;;;29.50;88.80;;;;;;5031048;28;20034;-52
2023/07/17 06:49:15;;;;;;;10.10;4.15;;;28.60;90.70;;;;;;5031266;28;20025;-52
2023/07/17 06:51:41;;;;;;;5.65;3.25;;;28.60;90.50;;;;;;5031396;28;20029;-50
2023/07/17 06:54:06;;;;;;;7.00;3.58;;;28.50;90.90;;;;;;5031462;28;20413;-54
2023/07/17 06:56:32;;;;;;;8.75;3.78;;;29.20;90.30;;;;;;5031391;28;20032;-53
2023/07/17 06:58:57;;;;;;;7.45;3.70;;;29.70;88.90;;;;;;5031448;28;20459;-55
2023/07/17 07:01:23;;;;;;;7.78;4.05;;;30.30;86.70;;;;;;5031207;28;20092;-55
2023/07/17 07:03:48;;;;;;;9.57;3.45;;;31.00;85.20;;;;;;5031077;28;20059;-53
2023/07/17 07:06:14;;;;;;;6.15;3.00;;;31.40;83.20;;;;;;5030711;28;20029;-55
2023/07/17 07:08:42;;;;;;;7.00;3.08;;;31.50;83.10;;;;;;5031039;28;20048;-52
2023/07/17 07:11:08;;;;;;;9.90;3.88;;;32.50;80.90;;;;;;5031026;28;20018;-54
2023/07/17 07:13:34;;;;;;;5.90;3.67;;;32.90;79.10;;;;;;5031701;28;20404;-52
2023/07/17 07:15:59;;;;;;;7.40;3.17;;;32.20;79.50;;;;;;5033980;28;20041;-54
2023/07/17 07:18:25;;;;;;;6.45;3.38;;;32.90;77.80;;;;;;5034210;28;20033;-56
2023/07/17 07:20:53;;;;;;;13.57;3.65;;;33.10;77.10;;;;;;5035042;28;20072;-57
2023/07/17 07:23:20;;;;;;;8.60;3.85;;;33.40;76.00;;;;;;5035121;28;20022;-55
2023/07/17 07:25:46;;;;;;;5.65;3.38;;;33.00;75.60;;;;;;5034883;28;20026;-53
2023/07/17 07:28:12;;;;;;;11.77;4.10;;;33.20;75.90;;;;;;5034731;28;20022;-54
2023/07/17 07:30:38;;;;;;;6.90;3.70;;;33.50;75.50;;;;;;5034801;28;20488;-55
2023/07/17 07:33:03;;;;;;;6.15;3.53;;;33.80;73.20;;;;;;5034569;28;20108;-56
2023/07/17 07:35:29;;;;;;;5.88;2.88;;;33.30;73.60;;;;;;5034271;28;20117;-58
2023/07/17 07:37:55;;;;;;;9.15;3.38;;;32.10;75.70;;;;;;5034274;28;20437;-52
2023/07/17 07:40:20;;;;;;;7.30;3.83;;;31.90;76.50;;;;;;5034497;28;20079;-55
2023/07/17 07:42:46;;;;;;;7.70;3.42;;;32.00;77.00;;;;;;5034576;28;20028;-51
2023/07/17 07:45:12;;;;;;;8.20;3.75;;;31.90;76.20;;;;;;5034323;28;20034;-56
2023/07/17 07:47:39;;;;;;;5.13;3.35;;;32.20;75.00;;;;;;5034071;28;20033;-53
2023/07/17 07:50:05;;;;;;;6.05;3.40;;;32.20;73.60;;;;;;5034276;28;20029;-51
2023/07/17 07:52:31;;;;;;;5.70;3.28;;;31.60;74.80;;;;;;5033153;28;20061;-54
2023/07/17 07:54:56;;;;;;;7.38;3.55;;;31.20;74.90;;;;;;5034269;28;20065;-50
2023/07/17 07:57:22;;;;;;;9.20;3.88;;;30.60;75.90;;;;;;5034398;28;20550;-58
2023/07/17 07:59:51;;;;;;;8.85;3.97;;;29.80;77.90;;;;;;5036032;28;20028;-54
2023/07/17 08:02:17;;;;;;;10.70;3.85;;;28.90;79.80;;;;;;5033996;28;20455;-52
2023/07/17 08:04:43;;;;;;;5.28;3.45;;;28.50;81.60;;;;;;5034203;28;20025;-56
2023/07/17 08:07:09;;;;;;;12.95;4.72;;;27.90;83.90;;;;;;5034044;28;20022;-55
2023/07/17 08:09:34;;;;;;;11.18;4.07;;;27.80;84.10;;;;;;5034067;28;20052;-54
2023/07/17 08:12:00;;;;;;;10.32;3.60;;;27.50;85.40;;;;;;5034163;28;20029;-57
2023/07/17 08:14:25;;;;;;;8.23;3.42;;;27.10;86.80;;;;;;5033968;28;20152;-54
2023/07/17 08:16:51;;;;;;;9.52;3.70;;;26.70;88.40;;;;;;5033197;28;20127;-57
2023/07/17 08:19:18;;;;;;;9.07;3.53;;;26.30;89.70;;;;;;5033551;28;20041;-53
2023/07/17 08:21:43;;;;;;;7.90;3.80;;;25.80;91.00;;;;;;5033818;28;20147;-53
2023/07/17 08:24:09;;;;;;;9.40;3.83;;;25.80;91.80;;;;;;5033795;28;20033;-54
2023/07/17 08:26:36;;;;;;;6.28;3.65;;;26.10;91.70;;;;;;5033338;28;20025;-55
2023/07/17 08:29:02;;;;;;;4.93;3.25;;;26.90;89.70;;;;;;5032460;28;20025;-52
2023/07/17 08:31:28;;;;;;;8.13;3.45;;;27.20;88.60;;;;;;5033579;28;20026;-51
2023/07/17 08:33:54;;;;;;;5.85;3.70;;;27.10;86.70;;;;;;5033905;28;20033;-54
2023/07/17 08:36:19;;;;;;;7.80;4.10;;;26.70;86.90;;;;;;5033073;28;20021;-55
2023/07/17 08:38:46;;;;;;;9.38;3.25;;;26.40;87.50;;;;;;5033595;28;20034;-51
2023/07/17 08:41:13;;;;;;;10.82;3.75;;;26.20;88.90;;;;;;5033370;28;20037;-52
2023/07/17 08:43:39;;;;;;;6.35;3.67;;;25.90;89.10;;;;;;5033314;28;20100;-56
2023/07/17 08:46:05;;;;;;;6.35;4.00;;;25.70;90.10;;;;;;5033180;28;20032;-53
2023/07/17 08:48:31;;;;;;;7.88;5.00;;;25.60;90.30;;;;;;5033115;28;20088;-54
2023/07/17 08:50:58;;;;;;;6.38;3.38;;;25.70;89.60;;;;;;5033280;28;20021;-51
2023/07/17 08:53:27;;;;;;;9.65;3.83;;;26.30;89.20;;;;;;5033175;28;20033;-51
2023/07/17 08:55:55;;;;;;;9.25;3.05;;;26.90;88.40;;;;;;5031582;28;20029;-52
2023/07/17 08:58:24;;;;;;;5.05;3.35;;;27.60;87.60;;;;;;5033126;28;20018;-55
2023/07/17 09:00:53;;;;;;;5.80;3.55;;;28.20;84.80;;;;;;5033136;28;20104;-55
2023/07/17 09:03:19;;;;;;;4.57;3.00;;;28.50;84.50;;;;;;5033184;28;20103;-53
2023/07/17 09:05:44;;;;;;;7.22;3.70;;;28.70;82.70;;;;;;5032864;28;20481;-53
2023/07/17 09:08:11;;;;;;;7.82;3.47;;;28.90;81.80;;;;;;5032641;28;20105;-55
2023/07/17 09:10:37;;;;;;;5.85;3.22;;;28.90;82.60;;;;;;5032480;28;20102;-53
2023/07/17 09:13:04;;;;;;;5.60;3.20;;;28.80;81.10;;;;;;5032465;28;20033;-55
2023/07/17 09:15:31;;;;;;;6.80;3.53;;;28.80;82.10;;;;;;5032323;28;20025;-50
2023/07/17 09:17:56;;;;;;;8.52;3.17;;;29.10;81.40;;;;;;5031840;28;20028;-51
2023/07/17 09:20:22;;;;;;;9.85;3.30;;;29.20;81.30;;;;;;5032443;28;20030;-50
2023/07/17 09:22:48;;;;;;;7.55;2.50;;;29.30;80.40;;;;;;5032307;28;20100;-51
2023/07/17 09:25:15;;;;;;;12.10;2.88;;;29.30;77.10;;;;;;5032230;28;20025;-51
2023/07/17 09:27:47;;;;;;;6.38;2.72;;;29.00;76.50;;;;;;5031902;28;20064;-54
2023/07/17 09:30:18;;;;;;;4.43;3.17;;;28.90;76.70;;;;;;5032248;28;20025;-54
2023/07/17 09:32:45;;;;;;;10.57;4.45;;;28.80;77.20;;;;;;5032043;28;20108;-53
2023/07/17 09:35:11;;;;;;;6.97;3.17;;;28.80;77.60;;;;;;5031867;28;20087;-54
2023/07/17 09:37:40;;;;;;;6.10;3.03;;;28.60;74.10;;;;;;5031158;28;20033;-53
2023/07/17 09:40:07;;;;;;;8.35;3.00;;;28.20;76.30;;;;;;5032141;28;20543;-55
2023/07/17 09:42:33;;;;;;;6.35;2.65;;;28.00;77.60;;;;;;5031971;28;20029;-52
2023/07/17 09:45:00;;;;;;;13.18;2.70;;;27.70;78.50;;;;;;5031958;28;20104;-53
2023/07/17 09:47:27;;;;;;;4.78;2.63;;;27.60;77.90;;;;;;5031513;28;20079;-52
2023/07/17 09:49:54;;;;;;;8.60;2.95;;;27.50;76.90;;;;;;5031834;28;20399;-51
2023/07/17 09:52:20;;;;;;;9.77;2.65;;;27.50;77.10;;;;;;5031877;28;20029;-51
2023/07/17 09:54:48;;;;;;;5.32;2.85;;;27.70;77.40;;;;;;5031813;28;20033;-51
2023/07/17 09:57:23;;;;;;;5.07;2.72;;;27.80;77.10;;;;;;5031443;28;20017;-54
2023/07/17 09:59:49;;;;;;;;;;;27.80;76.10;;;;;;5032237;28;20045;-53
2023/07/17 10:02:20;;;;;;;5.32;2.45;;;27.70;75.30;;;;;;5031752;28;19905;-55
2023/07/17 10:04:51;;;;;;;6.20;2.47;;;27.90;74.90;;;;;;5031636;28;20021;-55
2023/07/17 10:07:19;;;;;;;5.35;2.60;;;27.90;74.60;;;;;;5031371;28;20083;-54
2023/07/17 10:09:48;;;;;;;7.28;3.72;;;27.90;72.60;;;;;;5031458;28;20029;-55
2023/07/17 10:12:15;;;;;;;3.95;2.60;;;27.90;73.70;;;;;;5031528;28;20129;-53
2023/07/17 10:14:42;;;;;;;4.15;2.63;;;27.80;73.40;;;;;;5031441;28;20031;-55
2023/07/17 10:17:34;;;;;;;5.55;3.00;;;27.50;74.10;;;;;;5031001;28;20025;-50
2023/07/17 10:20:08;;;;;;;4.65;2.50;;;27.40;74.30;;;;;;5031486;28;20096;-52
2023/07/17 10:22:43;;;;;;;10.47;3.77;;;27.30;74.10;;;;;;5031319;28;20021;-52
2023/07/17 10:25:29;;;;;;;8.57;2.95;;;27.20;74.60;;;;;;5031382;28;20040;-53
2023/07/17 10:28:04;;;;;;;4.78;2.55;;;27.30;76.10;;;;;;5030843;28;20381;-55
2023/07/17 10:30:34;;;;;;;5.70;2.95;;;27.20;74.70;;;;;;5031340;28;20388;-54
2023/07/17 10:33:13;;;;;;;5.57;3.33;;;27.10;73.60;;;;;;5031870;28;20025;-53
2023/07/17 10:35:44;;;;;;;5.35;2.65;;;27.00;74.70;;;;;;5031314;28;20029;-52
2023/07/17 10:38:11;;;;;;;5.38;2.63;;;26.90;73.00;;;;;;5031066;28;20396;-56
2023/07/17 10:40:36;;;;;;;8.35;3.20;;;27.00;73.10;;;;;;5031377;28;20113;-54
2023/07/17 10:43:20;;;;;;;3.20;2.80;;;26.70;72.40;;;;;;5030794;28;20036;-54
2023/07/17 10:45:47;;;;;;;8.10;2.70;;;26.60;72.70;;;;;;5031350;28;20515;-57
2023/07/17 10:48:14;;;;;;;3.50;2.20;;;26.50;71.70;;;;;;5031646;28;20029;-54
2023/07/17 10:50:51;;;;;;;6.45;3.13;;;26.40;73.00;;;;;;5035769;28;20076;-56
2023/07/17 10:53:17;;;;;;;7.75;3.38;;;26.70;73.50;;;;;;5035433;28;20496;-52
2023/07/17 10:55:42;;;;;;;3.13;2.45;;;26.80;72.20;;;;;;5035150;28;20052;-53
2023/07/17 10:58:08;;;;;;;7.43;2.63;;;27.00;73.10;;;;;;5035192;28;20025;-53
2023/07/17 11:00:34;;;;;;;7.35;2.92;;;27.00;71.20;;;;;;5035113;28;20476;-52
2023/07/17 11:02:59;;;;;;;5.43;2.60;;;27.10;72.90;;;;;;5035246;28;20032;-55
2023/07/17 11:05:25;;;;;;;8.20;3.22;;;27.10;72.90;;;;;;5035384;28;20397;-52
2023/07/17 11:07:51;;;;;;;4.28;2.80;;;26.90;72.60;;;;;;5035109;28;20113;-53
2023/07/17 11:10:16;;;;;;;6.63;2.80;;;26.80;73.70;;;;;;5035321;28;20041;-54
2023/07/17 11:12:42;;;;;;;5.68;2.70;;;26.80;74.60;;;;;;5035296;28;20033;-52
2023/07/17 11:15:18;;;;;;;7.07;2.75;;;26.90;74.50;;;;;;5034993;28;20053;-57
2023/07/17 11:17:45;;;;;;;5.93;2.53;;;26.80;74.30;;;;;;5034514;28;20022;-51
2023/07/17 11:20:12;;;;;;;9.55;2.28;;;26.80;74.60;;;;;;5034936;28;20026;-51
2023/07/17 11:22:40;;;;;;;7.28;3.25;;;26.80;73.70;;;;;;5033409;28;20021;-54
2023/07/17 11:25:07;;;;;;;8.63;3.10;;;26.70;74.70;;;;;;5034634;28;20021;-54
2023/07/17 11:27:33;;;;;;;7.15;2.88;;;26.60;74.80;;;;;;5034112;28;20029;-53
2023/07/17 11:29:58;;;;;;;4.82;2.72;;;26.40;76.00;;;;;;5034671;28;20133;-55
2023/07/17 11:32:27;;;;;;;7.55;2.70;;;26.40;76.00;;;;;;5034713;28;20034;-53
2023/07/17 11:34:54;;;;;;;7.70;2.75;;;26.40;76.90;;;;;;5034583;28;20531;-51
2023/07/17 11:37:37;;;;;;;4.82;3.08;;;26.60;76.80;;;;;;5034013;28;20022;-53
2023/07/17 11:40:07;;;;;;;6.82;2.55;;;26.70;76.50;;;;;;5034586;28;20025;-54
2023/07/17 11:42:55;;;;;;;11.15;3.08;;;26.80;76.10;;;;;;5034486;28;20516;-52
2023/07/17 11:45:26;;;;;;;6.47;3.03;;;26.80;76.60;;;;;;5034329;28;20035;-51
2023/07/17 11:47:56;;;;;;;7.18;3.00;;;26.90;76.50;;;;;;5032834;28;20171;-52
2023/07/17 11:50:26;;;;;;;7.93;2.78;;;26.90;75.50;;;;;;5034103;28;20112;-50
2023/07/17 11:53:11;;;;;;;6.43;2.80;;;26.90;75.10;;;;;;5034166;28;20102;-54
2023/07/17 11:55:39;;;;;;;6.20;2.73;;;26.70;74.60;;;;;;5033819;28;20049;-55
2023/07/17 11:58:18;;;;;;;6.15;3.03;;;26.70;76.00;;;;;;5033637;28;20024;-55
2023/07/17 12:00:46;;;;;;;4.05;2.88;;;26.80;75.40;;;;;;5033589;28;20491;-52
2023/07/17 12:03:11;;;;;;;6.32;2.85;;;26.70;75.10;;;;;;5032695;28;20025;-54
2023/07/17 12:05:38;;;;;;;3.65;2.50;;;26.50;75.60;;;;;;5033829;28;20392;-56
2023/07/17 12:08:04;;;;;;;5.05;2.55;;;26.50;76.60;;;;;;5032374;28;20037;-51
2023/07/17 12:10:30;;;;;;;8.52;3.55;;;26.40;75.70;;;;;;5033781;28;20097;-52
2023/07/17 12:12:57;;;;;;;4.80;2.58;;;26.40;75.60;;;;;;5033625;28;20037;-55
2023/07/17 12:15:22;;;;;;;9.57;2.53;;;26.40;77.00;;;;;;5033583;28;20029;-53
2023/07/17 12:17:48;;;;;;;6.38;2.70;;;26.40;76.30;;;;;;5032913;28;20029;-53
2023/07/17 12:20:20;;;;;;;5.97;2.78;;;26.40;76.20;;;;;;5033879;28;20026;-55
2023/07/17 12:22:46;;;;;;;4.95;2.80;;;26.50;76.60;;;;;;5032379;28;20021;-52
2023/07/17 12:25:11;;;;;;;10.13;2.58;;;26.50;73.80;;;;;;5033623;28;20105;-52
2023/07/17 12:27:37;;;;;;;4.43;2.35;;;26.50;75.20;;;;;;5033129;28;20477;-54
2023/07/17 12:30:03;;;;;;;8.80;2.65;;;26.60;74.50;;;;;;5033581;28;20480;-52
2023/07/17 12:32:29;;;;;;;4.65;2.20;;;26.60;73.60;;;;;;5033833;28;20022;-51
2023/07/17 12:34:54;;;;;;;7.22;2.95;;;26.60;73.80;;;;;;5033193;28;20035;-53
2023/07/17 12:37:20;;;;;;;12.57;4.90;;;26.50;73.90;;;;;;5032853;28;20033;-54
2023/07/17 12:39:45;;;;;;;3.97;2.47;;;26.50;73.50;;;;;;5033090;28;20028;-52
2023/07/17 12:42:11;;;;;;;8.45;2.30;;;26.50;73.30;;;;;;5033191;28;20112;-53